EPSC/SZZ METAR and TAF weather

Enter ICAO airport designator
Station Type Date Time Source
EPSC METAR 2021/10/22 18:30 UTC NOAA

EPSC 221830Z 26010KT 9999 FEW007 06/03 Q1007


Station Type Date Time Source
EPSC Decoded METAR 2021/10/22 18:30 UTC NOAA

Szczecin, Poland (EPSC) 53-24N 014-37E 3M
Oct 22, 2021 - 02:30 PM EDT / 2021.10.22 1830 UTC
Wind: from the W (260 degrees) at 12 MPH (10 KT):0
Visibility: greater than 7 mile(s):0
Sky conditions: mostly clear
Temperature: 42 F (6 C)
Dew Point: 37 F (3 C)
Relative Humidity: 81%
Pressure (altimeter): 29.74 in. Hg (1007 hPa)
ob: EPSC 221830Z 26010KT 9999 FEW007 06/03 Q1007
cycle: 18

Station Type Date Time Source
EPSC TAF 2021/10/22 18:33 UTC NOAA

TAF EPSC 221730Z 2218/2318 27011KT 9999 SCT030
TEMPO 2218/2315 27015G25KT PROB40
TEMPO 2309/2312 29018G31KT -SHRA BKN020TCU

Example: see airport list